Time;durP1;ratioP1;P1;durP2;ratioP2;P2;SDS_P1;SDS_P2;PMS_P1;PMS_P2;Temp;Humidity;BMP_temperature;BMP_pressure;BME280_temperature;BME280_humidity;BME280_pressure;Samples;Min_cycle;Max_cycle;Signal;HPM_P1;HPM_P2
2021/12/08 00:00:31;;;;;;;38.13;25.60;;;0.60;99.90;;;;;;5034627;28;20530;-64
2021/12/08 00:03:01;;;;;;;49.43;27.43;;;0.60;99.90;;;;;;5033453;28;20181;-65
2021/12/08 00:05:27;;;;;;;40.37;23.83;;;0.60;99.90;;;;;;5032456;28;20194;-65
2021/12/08 00:07:53;;;;;;;40.43;24.97;;;0.70;99.90;;;;;;5033348;28;20240;-65
2021/12/08 00:10:50;;;;;;;42.07;23.67;;;0.70;99.90;;;;;;5037389;28;20300;-64
2021/12/08 00:13:11;;;;;;;45.10;24.13;;;0.70;99.90;;;;;;5030932;28;20276;-64
2021/12/08 00:15:42;;;;;;;41.30;23.33;;;0.70;99.90;;;;;;5037054;28;20658;-63
2021/12/08 00:18:11;;;;;;;38.03;23.07;;;0.70;99.90;;;;;;5033194;28;20199;-63
2021/12/08 00:20:38;;;;;;;46.60;25.20;;;0.70;99.90;;;;;;5034833;28;20200;-63
2021/12/08 00:23:06;;;;;;;38.57;23.47;;;0.60;99.90;;;;;;5033437;28;20207;-64
2021/12/08 00:25:31;;;;;;;38.07;22.23;;;0.60;99.90;;;;;;5033919;28;20197;-64
2021/12/08 00:27:58;;;;;;;35.43;22.10;;;0.60;99.90;;;;;;5031564;28;20574;-65
2021/12/08 00:30:24;;;;;;;38.87;23.57;;;0.60;99.90;;;;;;5037642;28;20269;-66
2021/12/08 00:32:51;;;;;;;41.57;24.43;;;0.60;99.90;;;;;;5036833;28;20220;-66
2021/12/08 00:35:17;;;;;;;37.33;22.87;;;0.60;99.90;;;;;;5044025;28;20186;-65
2021/12/08 00:37:43;;;;;;;38.73;22.83;;;0.60;99.90;;;;;;5033500;28;20216;-68
2021/12/08 00:40:12;;;;;;;38.50;23.00;;;0.60;99.90;;;;;;5037263;28;20195;-66
2021/12/08 00:42:38;;;;;;;39.57;23.13;;;0.60;99.90;;;;;;5035537;28;20741;-66
2021/12/08 00:45:08;;;;;;;37.90;23.60;;;0.60;99.90;;;;;;5038722;28;20193;-66
2021/12/08 00:47:34;;;;;;;34.27;20.43;;;0.60;99.90;;;;;;5035483;28;20203;-65
2021/12/08 00:50:00;;;;;;;36.83;23.37;;;0.60;99.90;;;;;;5037441;28;20217;-65
2021/12/08 00:52:28;;;;;;;37.83;23.77;;;0.50;99.90;;;;;;5035532;28;21035;-66
2021/12/08 00:54:55;;;;;;;35.70;22.50;;;0.40;99.90;;;;;;5051189;28;20671;-66
2021/12/08 00:57:21;;;;;;;39.10;23.53;;;0.40;99.90;;;;;;5044216;28;20213;-66
2021/12/08 00:59:46;;;;;;;39.13;22.80;;;0.40;99.90;;;;;;5040352;28;20185;-65
2021/12/08 01:02:12;;;;;;;39.37;23.97;;;0.40;99.90;;;;;;5036519;28;20227;-66
2021/12/08 01:04:37;;;;;;;40.60;23.40;;;0.40;99.90;;;;;;5035785;28;20235;-65
2021/12/08 01:07:03;;;;;;;36.47;22.13;;;0.40;99.90;;;;;;5035087;28;20226;-67
2021/12/08 01:09:29;;;;;;;33.93;20.83;;;0.30;99.90;;;;;;5037270;28;20186;-65
2021/12/08 01:11:57;;;;;;;35.27;21.87;;;0.30;99.90;;;;;;5039375;28;20271;-65
2021/12/08 01:14:23;;;;;;;39.73;23.83;;;0.30;99.90;;;;;;5040103;28;20298;-67
2021/12/08 01:16:51;;;;;;;38.53;22.87;;;0.30;99.90;;;;;;5032784;28;20687;-66
2021/12/08 01:19:17;;;;;;;41.63;24.23;;;0.30;99.90;;;;;;5037649;28;20187;-66
2021/12/08 01:21:42;;;;;;;42.13;23.30;;;0.30;99.90;;;;;;5038384;28;20197;-67
2021/12/08 01:24:09;;;;;;;38.87;22.43;;;0.30;99.90;;;;;;5037389;28;20189;-66
2021/12/08 01:26:34;;;;;;;35.77;22.57;;;0.30;99.90;;;;;;5034190;28;20294;-67
2021/12/08 01:29:00;;;;;;;39.17;23.27;;;0.30;99.90;;;;;;5036422;28;20256;-66
2021/12/08 01:31:26;;;;;;;36.50;23.10;;;0.30;99.90;;;;;;5041165;28;20668;-67
2021/12/08 01:33:51;;;;;;;46.63;23.53;;;0.30;99.90;;;;;;5036173;28;20207;-66
2021/12/08 01:36:17;;;;;;;43.50;23.97;;;0.40;99.90;;;;;;5037340;28;20189;-66
2021/12/08 01:38:44;;;;;;;37.30;22.97;;;0.40;99.90;;;;;;5036477;28;20917;-66
2021/12/08 01:41:09;;;;;;;38.97;21.83;;;0.40;99.90;;;;;;5040364;28;20235;-66
2021/12/08 01:46:22;;;;;;;36.33;22.27;;;0.40;99.90;;;;;;5034744;28;20199;-64
2021/12/08 01:48:47;;;;;;;35.20;21.17;;;0.40;99.90;;;;;;5031820;28;20569;-66
2021/12/08 01:51:16;;;;;;;35.93;24.57;;;0.40;99.90;;;;;;5039845;28;20213;-65
2021/12/08 01:53:44;;;;;;;35.23;21.93;;;0.30;99.90;;;;;;5033036;28;20206;-66
2021/12/08 01:56:10;;;;;;;35.87;22.67;;;0.40;99.90;;;;;;5031345;28;20258;-66
2021/12/08 01:58:37;;;;;;;40.80;22.40;;;0.40;99.90;;;;;;5038875;28;20231;-65
2021/12/08 02:01:10;;;;;;;37.07;21.87;;;0.40;99.90;;;;;;5035305;28;20268;-64
2021/12/08 02:03:37;;;;;;;35.43;21.80;;;0.30;99.90;;;;;;5033487;28;20259;-64
2021/12/08 02:06:06;;;;;;;35.50;22.03;;;0.30;99.90;;;;;;5034167;28;20205;-65
2021/12/08 02:08:33;;;;;;;39.63;23.53;;;0.30;99.90;;;;;;5042173;28;20193;-65
2021/12/08 02:11:01;;;;;;;39.30;22.57;;;0.30;99.90;;;;;;5035431;28;20220;-65
2021/12/08 02:13:30;;;;;;;37.53;23.33;;;0.30;99.90;;;;;;5038177;28;20250;-64
2021/12/08 02:15:56;;;;;;;43.07;24.10;;;0.30;99.90;;;;;;5037046;28;20236;-63
2021/12/08 02:18:21;;;;;;;43.73;23.33;;;0.30;99.90;;;;;;5037726;28;20568;-64
2021/12/08 02:20:48;;;;;;;37.93;22.97;;;0.20;99.90;;;;;;5037271;28;20191;-64
2021/12/08 02:23:15;;;;;;;38.73;22.77;;;0.30;99.90;;;;;;5034934;28;20204;-64
2021/12/08 02:25:41;;;;;;;41.37;23.53;;;0.30;99.90;;;;;;5030892;28;20201;-66
2021/12/08 02:28:08;;;;;;;33.80;22.27;;;0.20;99.90;;;;;;5040195;28;20202;-65
2021/12/08 02:30:49;;;;;;;36.17;22.33;;;0.20;99.90;;;;;;5034910;28;20576;-64
2021/12/08 02:50:06;;;;;;;38.37;22.33;;;0.30;99.90;;;;;;5030428;28;20204;-63
2021/12/08 02:52:32;;;;;;;36.90;22.97;;;0.20;99.90;;;;;;5034599;28;20197;-65
2021/12/08 02:55:05;;;;;;;40.40;21.97;;;0.20;99.90;;;;;;5038651;28;20986;-66
2021/12/08 02:57:30;;;;;;;43.00;22.00;;;0.20;99.90;;;;;;5029115;28;20262;-67
2021/12/08 02:59:56;;;;;;;41.47;22.03;;;0.20;99.90;;;;;;5039113;28;20914;-66
2021/12/08 03:02:21;;;;;;;43.33;22.13;;;0.20;99.90;;;;;;5035814;28;20194;-66
2021/12/08 03:04:47;;;;;;;39.50;22.40;;;0.20;99.90;;;;;;5031768;28;20571;-66
2021/12/08 03:07:13;;;;;;;34.10;19.97;;;0.10;99.90;;;;;;5049152;28;20197;-64
2021/12/08 03:09:38;;;;;;;39.40;22.93;;;0.20;99.90;;;;;;5040523;28;20683;-64
2021/12/08 03:12:05;;;;;;;32.73;19.87;;;0.10;99.90;;;;;;5039635;28;20229;-64
2021/12/08 03:14:30;;;;;;;35.73;22.20;;;0.20;99.90;;;;;;5033098;28;20230;-66
2021/12/08 03:17:01;;;;;;;38.40;22.23;;;0.10;99.90;;;;;;5039215;28;20666;-66
2021/12/08 03:19:27;;;;;;;36.87;21.87;;;0.10;99.90;;;;;;5042102;28;20193;-66
2021/12/08 03:21:54;;;;;;;37.63;20.97;;;0.10;99.90;;;;;;5050674;28;20223;-66
2021/12/08 03:29:24;;;;;;;34.23;19.73;;;0.10;99.90;;;;;;5040612;28;20534;-66
2021/12/08 03:31:52;;;;;;;35.07;20.23;;;0.10;99.90;;;;;;5045096;28;20240;-66
2021/12/08 03:34:20;;;;;;;35.63;20.40;;;0.00;99.90;;;;;;5031978;28;20206;-66
2021/12/08 03:36:47;;;;;;;36.97;20.20;;;0.00;99.90;;;;;;5056000;28;20644;-67
2021/12/08 03:39:13;;;;;;;35.37;20.23;;;0.00;99.90;;;;;;5028049;28;20192;-67
2021/12/08 03:41:38;;;;;;;38.87;22.00;;;0.10;99.90;;;;;;5054036;28;20208;-66
2021/12/08 03:44:05;;;;;;;36.30;22.63;;;0.10;99.90;;;;;;5037235;28;20197;-65
2021/12/08 03:46:35;;;;;;;38.73;21.23;;;0.10;99.90;;;;;;5036838;28;20725;-65
2021/12/08 03:49:05;;;;;;;35.10;21.60;;;0.10;99.90;;;;;;5035929;28;20188;-65
2021/12/08 03:51:30;;;;;;;33.17;21.63;;;0.10;99.90;;;;;;5057834;28;20219;-65
2021/12/08 03:53:56;;;;;;;35.17;22.67;;;0.10;99.90;;;;;;5030471;28;20590;-65
2021/12/08 03:56:22;;;;;;;37.93;22.37;;;0.10;99.90;;;;;;5035568;28;20205;-65
2021/12/08 03:58:47;;;;;;;31.23;19.77;;;0.10;99.90;;;;;;5028987;28;20254;-63
2021/12/08 04:01:14;;;;;;;32.23;21.93;;;0.20;99.90;;;;;;5057223;28;20582;-66
2021/12/08 04:03:40;;;;;;;36.73;21.43;;;0.10;99.90;;;;;;5033319;28;20626;-64
2021/12/08 04:06:15;;;;;;;37.03;21.73;;;0.20;99.90;;;;;;5050467;28;20224;-65
2021/12/08 04:08:45;;;;;;;35.53;21.63;;;0.20;99.90;;;;;;5027727;28;20220;-66
2021/12/08 04:11:12;;;;;;;37.87;21.40;;;0.10;99.90;;;;;;5057786;28;20307;-65
2021/12/08 04:13:40;;;;;;;38.43;22.63;;;0.10;99.90;;;;;;5035388;28;20208;-66
2021/12/08 04:16:08;;;;;;;36.27;22.20;;;0.20;99.90;;;;;;5052326;28;20958;-67
2021/12/08 04:18:34;;;;;;;38.33;22.10;;;0.10;99.90;;;;;;5039659;28;20209;-66
2021/12/08 04:21:02;;;;;;;38.13;23.10;;;0.10;99.90;;;;;;5062989;28;20287;-65
2021/12/08 04:23:35;;;;;;;40.43;21.83;;;0.20;99.90;;;;;;5040731;28;20220;-66
2021/12/08 04:26:02;;;;;;;41.40;24.17;;;0.20;99.90;;;;;;5028894;28;20277;-63
2021/12/08 04:28:30;;;;;;;35.37;22.17;;;0.20;99.90;;;;;;5046068;28;20208;-66
2021/12/08 04:30:58;;;;;;;39.50;23.00;;;0.20;99.90;;;;;;5062440;28;20216;-66
2021/12/08 04:33:24;;;;;;;34.77;22.63;;;0.20;99.90;;;;;;5036987;28;20258;-66
2021/12/08 04:35:52;;;;;;;34.37;21.97;;;0.20;99.90;;;;;;5063995;28;20701;-66
2021/12/08 04:38:25;;;;;;;34.30;21.13;;;0.20;99.90;;;;;;5042874;28;20235;-65
2021/12/08 04:41:07;;;;;;;35.83;21.53;;;0.20;99.90;;;;;;5028745;28;20291;-66
2021/12/08 04:43:48;;;;;;;41.13;23.83;;;0.30;99.90;;;;;;5026550;28;20205;-66
2021/12/08 04:46:33;;;;;;;36.80;23.33;;;0.30;99.90;;;;;;5028472;28;20188;-65
2021/12/08 04:49:22;;;;;;;32.47;19.93;;;0.20;99.90;;;;;;5028501;28;20206;-66
2021/12/08 04:51:57;;;;;;;37.13;22.03;;;0.30;99.90;;;;;;5030609;28;20221;-66
2021/12/08 05:06:04;;;;;;;37.50;22.70;;;0.30;99.90;;;;;;5043596;28;20227;-66
2021/12/08 05:08:41;;;;;;;36.77;23.47;;;0.30;99.90;;;;;;5026294;28;20205;-67
2021/12/08 05:11:31;;;;;;;38.40;22.07;;;0.30;99.90;;;;;;5028043;28;20226;-66
2021/12/08 05:14:07;;;;;;;33.80;21.70;;;0.30;99.90;;;;;;5027802;28;20284;-66
2021/12/08 05:16:35;;;;;;;36.33;21.00;;;0.30;99.90;;;;;;5026091;28;20227;-66
2021/12/08 05:19:04;;;;;;;38.50;22.17;;;0.30;99.90;;;;;;5037346;28;20188;-67
2021/12/08 05:21:51;;;;;;;38.67;21.63;;;0.30;99.90;;;;;;5050706;28;20252;-67
2021/12/08 05:24:31;;;;;;;38.77;24.03;;;0.30;99.90;;;;;;5043577;28;20216;-67
2021/12/08 05:27:08;;;;;;;30.73;20.20;;;0.30;99.90;;;;;;5041975;28;20212;-65
2021/12/08 05:29:46;;;;;;;39.03;21.37;;;0.30;99.90;;;;;;5041738;28;20193;-66
2021/12/08 05:32:13;;;;;;;33.40;21.23;;;0.20;99.90;;;;;;5038090;28;20249;-69
2021/12/08 05:34:40;;;;;;;37.83;20.77;;;0.20;99.90;;;;;;5027377;28;20857;-68
2021/12/08 05:37:08;;;;;;;40.93;22.83;;;0.20;99.90;;;;;;5051947;28;20212;-68
2021/12/08 05:39:37;;;;;;;34.47;22.70;;;0.20;99.90;;;;;;5037116;28;20291;-67
2021/12/08 05:42:08;;;;;;;36.63;22.53;;;0.20;99.90;;;;;;5051274;28;20265;-66
2021/12/08 05:44:35;;;;;;;39.17;23.20;;;0.20;99.90;;;;;;5038828;28;20247;-67
2021/12/08 05:47:05;;;;;;;34.77;20.27;;;0.20;99.90;;;;;;5050349;28;20634;-67
2021/12/08 05:49:30;;;;;;;32.53;20.57;;;0.10;99.90;;;;;;5032389;28;20241;-69
2021/12/08 05:51:57;;;;;;;35.00;20.70;;;0.10;99.90;;;;;;5056011;28;20620;-67
2021/12/08 05:54:31;;;;;;;37.80;20.77;;;0.00;99.90;;;;;;5034889;28;20192;-66
2021/12/08 05:57:00;;;;;;;29.80;19.73;;;0.00;99.90;;;;;;5025593;28;20209;-67
2021/12/08 05:59:26;;;;;;;34.97;21.07;;;0.00;99.90;;;;;;5043928;28;21041;-67
2021/12/08 06:01:57;;;;;;;38.47;20.07;;;0.00;99.90;;;;;;5055310;28;20200;-67
2021/12/08 06:04:25;;;;;;;35.33;20.70;;;-0.10;99.90;;;;;;5034649;28;20195;-66
2021/12/08 06:06:51;;;;;;;29.10;19.87;;;-0.10;99.90;;;;;;5043834;28;20225;-67
2021/12/08 06:09:19;;;;;;;38.23;21.40;;;-0.10;99.90;;;;;;5042467;28;20194;-66
2021/12/08 06:11:47;;;;;;;33.33;20.73;;;-0.10;99.90;;;;;;5052378;28;20217;-66
2021/12/08 06:14:13;;;;;;;33.90;21.77;;;-0.10;99.90;;;;;;5034369;28;20190;-66
2021/12/08 06:16:41;;;;;;;35.00;20.63;;;-0.10;99.90;;;;;;5040865;28;20205;-66
2021/12/08 06:19:10;;;;;;;32.50;19.70;;;-0.10;99.90;;;;;;5030975;28;20278;-65
2021/12/08 06:21:36;;;;;;;34.73;20.60;;;-0.10;99.90;;;;;;5058066;28;20721;-65
2021/12/08 06:24:05;;;;;;;34.90;21.90;;;-0.10;99.90;;;;;;5037144;28;20294;-64
2021/12/08 06:26:30;;;;;;;30.03;19.67;;;-0.10;99.90;;;;;;5061700;28;20240;-64
2021/12/08 06:28:58;;;;;;;32.67;20.47;;;0.00;99.90;;;;;;5039185;28;20190;-65
2021/12/08 06:31:26;;;;;;;29.37;18.73;;;0.00;99.90;;;;;;5046710;28;20255;-65
2021/12/08 06:33:52;;;;;;;32.93;21.10;;;0.00;99.90;;;;;;5034679;28;20290;-64
2021/12/08 06:36:29;;;;;;;37.27;21.80;;;0.00;99.90;;;;;;5053653;28;21148;-63
2021/12/08 06:38:55;;;;;;;34.40;20.93;;;0.00;99.90;;;;;;5046257;28;20552;-66
2021/12/08 06:41:26;;;;;;;35.30;20.30;;;0.00;99.90;;;;;;5052199;28;20195;-66
2021/12/08 06:43:58;;;;;;;36.77;21.10;;;0.00;99.90;;;;;;5038587;28;20203;-67
2021/12/08 06:46:24;;;;;;;33.03;18.73;;;0.00;99.90;;;;;;5024476;28;20655;-66
2021/12/08 06:48:55;;;;;;;36.17;20.20;;;0.00;99.90;;;;;;5033818;28;20188;-66
2021/12/08 06:51:32;;;;;;;32.60;20.00;;;0.10;99.90;;;;;;5025077;28;20254;-66
2021/12/08 06:54:05;;;;;;;35.03;20.63;;;0.10;99.90;;;;;;5025796;28;20193;-66
2021/12/08 06:56:34;;;;;;;32.53;19.70;;;0.20;99.90;;;;;;5023841;28;20251;-66
2021/12/08 06:59:06;;;;;;;37.13;21.47;;;0.10;99.90;;;;;;5026107;28;20733;-65
2021/12/08 07:04:34;;;;;;;35.00;20.57;;;0.20;99.90;;;;;;5041633;28;20667;-66
2021/12/08 07:07:14;;;;;;;34.40;21.00;;;0.10;99.90;;;;;;5028219;28;20303;-66
2021/12/08 07:09:47;;;;;;;41.97;22.57;;;0.10;99.90;;;;;;5032756;28;20215;-66
2021/12/08 07:12:32;;;;;;;34.90;20.63;;;0.10;99.90;;;;;;5030809;28;20311;-66
2021/12/08 07:15:13;;;;;;;34.23;21.83;;;0.10;99.90;;;;;;5042844;28;20241;-66
2021/12/08 07:17:42;;;;;;;39.80;24.03;;;0.00;99.90;;;;;;5034153;28;20289;-66
2021/12/08 07:20:29;;;;;;;33.43;20.03;;;0.10;99.90;;;;;;5040152;28;20197;-67
2021/12/08 07:22:57;;;;;;;37.13;21.57;;;0.10;99.90;;;;;;5031894;28;20206;-67
2021/12/08 07:25:27;;;;;;;38.57;21.90;;;0.10;99.90;;;;;;5060189;28;20199;-66
2021/12/08 07:27:54;;;;;;;32.80;19.13;;;0.10;99.90;;;;;;5023492;28;20212;-66
2021/12/08 07:30:35;;;;;;;41.30;20.93;;;0.10;99.90;;;;;;5060594;28;20250;-66
2021/12/08 07:33:00;;;;;;;40.73;23.60;;;0.20;99.90;;;;;;5023632;28;20204;-66
2021/12/08 07:35:45;;;;;;;39.80;23.67;;;0.20;99.90;;;;;;5054715;28;20207;-65
2021/12/08 07:38:18;;;;;;;39.10;21.80;;;0.30;99.90;;;;;;5023265;28;20258;-66
2021/12/08 07:40:55;;;;;;;36.47;21.30;;;0.20;99.90;;;;;;5044221;28;20208;-66
2021/12/08 07:43:24;;;;;;;41.77;22.50;;;0.20;99.90;;;;;;5033865;28;20244;-65
2021/12/08 07:46:12;;;;;;;38.03;21.77;;;0.20;99.90;;;;;;5046740;28;20208;-64
2021/12/08 07:48:47;;;;;;;40.13;21.77;;;0.10;99.90;;;;;;5023131;28;20216;-65
2021/12/08 07:51:15;;;;;;;43.83;23.43;;;0.10;99.90;;;;;;5024646;28;20260;-66
2021/12/08 07:53:42;;;;;;;42.43;22.13;;;0.20;99.90;;;;;;5036252;28;20216;-65
2021/12/08 07:56:11;;;;;;;42.40;23.07;;;0.20;99.90;;;;;;5046746;28;20290;-65
2021/12/08 07:58:39;;;;;;;37.70;22.30;;;0.20;99.90;;;;;;5032202;28;20210;-66
2021/12/08 08:01:17;;;;;;;42.83;23.17;;;0.20;99.90;;;;;;5038230;28;20192;-64
2021/12/08 08:03:44;;;;;;;39.07;22.23;;;0.30;99.90;;;;;;5033500;28;20258;-66
2021/12/08 08:06:23;;;;;;;40.67;21.70;;;0.30;99.90;;;;;;5036241;28;20322;-65
2021/12/08 08:08:49;;;;;;;43.50;21.97;;;0.30;99.90;;;;;;5033511;28;20291;-66
2021/12/08 08:11:20;;;;;;;39.60;22.37;;;0.30;99.90;;;;;;5036611;28;20212;-65
2021/12/08 08:13:46;;;;;;;46.10;24.13;;;0.30;99.90;;;;;;5032572;28;20212;-64
2021/12/08 08:16:16;;;;;;;44.40;23.50;;;0.30;99.90;;;;;;5032851;28;20703;-65
2021/12/08 08:18:51;;;;;;;41.53;22.30;;;0.30;99.90;;;;;;5033919;28;20784;-66
2021/12/08 08:21:24;;;;;;;46.50;23.37;;;0.30;99.90;;;;;;5031555;28;20286;-62
2021/12/08 08:23:51;;;;;;;43.37;23.67;;;0.30;99.90;;;;;;5030507;28;20189;-64
2021/12/08 08:26:17;;;;;;;43.43;23.93;;;0.30;99.90;;;;;;5035952;28;20227;-66
2021/12/08 08:28:48;;;;;;;38.30;21.20;;;0.40;99.90;;;;;;5029064;28;20217;-64
2021/12/08 08:31:19;;;;;;;45.53;22.87;;;0.40;99.90;;;;;;5032874;28;20216;-65
2021/12/08 08:33:46;;;;;;;57.47;27.37;;;0.40;99.90;;;;;;5031494;28;20196;-66
2021/12/08 08:36:20;;;;;;;49.30;22.50;;;0.40;99.90;;;;;;5036731;28;20200;-66
2021/12/08 08:38:50;;;;;;;46.50;24.00;;;0.40;99.90;;;;;;5031140;28;20222;-66
2021/12/08 08:42:01;;;;;;;46.60;23.30;;;0.50;99.90;;;;;;5030557;28;20192;-66
2021/12/08 08:45:03;;;;;;;45.97;22.23;;;0.50;99.90;;;;;;5036847;28;20312;-66
2021/12/08 08:47:37;;;;;;;45.63;24.07;;;0.50;99.90;;;;;;5029374;28;20281;-64
2021/12/08 08:50:09;;;;;;;44.67;22.43;;;0.50;99.90;;;;;;5032889;28;20187;-64
2021/12/08 08:52:40;;;;;;;44.40;25.03;;;0.60;99.90;;;;;;5029105;28;20217;-65
2021/12/08 08:55:18;;;;;;;41.17;22.27;;;0.60;99.90;;;;;;5034206;28;20616;-65
2021/12/08 08:57:46;;;;;;;45.90;23.87;;;0.60;99.90;;;;;;5033192;28;20254;-65
2021/12/08 09:00:19;;;;;;;47.23;25.20;;;0.60;99.90;;;;;;5041446;28;20557;-63
2021/12/08 09:02:47;;;;;;;50.10;23.47;;;0.60;99.90;;;;;;5030945;28;20738;-63
2021/12/08 09:05:24;;;;;;;45.20;22.80;;;0.70;99.90;;;;;;5041393;28;20602;-65
2021/12/08 09:07:53;;;;;;;42.50;23.20;;;0.70;99.90;;;;;;5031348;28;20211;-64
2021/12/08 09:10:35;;;;;;;45.67;23.20;;;0.60;99.90;;;;;;5039978;28;20245;-65
2021/12/08 09:13:06;;;;;;;42.63;22.47;;;0.60;99.90;;;;;;5035223;28;20210;-64
2021/12/08 09:15:39;;;;;;;50.67;24.07;;;0.60;99.90;;;;;;5035908;28;20279;-64
2021/12/08 09:18:28;;;;;;;45.17;22.50;;;0.70;99.90;;;;;;5034383;28;20202;-64
2021/12/08 09:21:08;;;;;;;47.50;22.17;;;0.70;99.90;;;;;;5037850;28;20762;-65
2021/12/08 09:23:49;;;;;;;46.23;23.40;;;0.70;99.90;;;;;;5036881;28;20204;-63
2021/12/08 09:26:21;;;;;;;44.07;23.80;;;0.70;99.90;;;;;;5034481;28;20217;-77
2021/12/08 09:28:57;;;;;;;43.60;24.13;;;0.80;99.90;;;;;;5035280;28;20200;-76
2021/12/08 09:31:32;;;;;;;47.47;24.90;;;0.80;99.90;;;;;;5031347;28;20292;-73
2021/12/08 09:34:21;;;;;;;41.57;22.57;;;0.90;99.90;;;;;;5035970;28;20955;-76
2021/12/08 09:36:56;;;;;;;40.47;22.90;;;0.90;99.90;;;;;;5033774;28;20691;-76
2021/12/08 09:39:37;;;;;;;43.43;22.50;;;1.00;99.90;;;;;;5039277;28;20238;-74
2021/12/08 09:42:07;;;;;;;36.57;22.63;;;1.00;99.90;;;;;;5037338;28;20221;-75
2021/12/08 09:44:39;;;;;;;49.47;25.47;;;0.90;99.90;;;;;;5038561;28;20229;-75
2021/12/08 09:47:05;;;;;;;42.47;25.00;;;0.90;99.90;;;;;;5032044;28;20211;-75
2021/12/08 09:49:32;;;;;;;47.07;23.33;;;0.90;99.90;;;;;;5041522;28;20225;-77
2021/12/08 09:52:00;;;;;;;45.10;23.80;;;0.90;99.90;;;;;;5052238;28;20220;-77
2021/12/08 09:54:26;;;;;;;53.50;23.43;;;1.00;99.90;;;;;;5033101;28;20228;-80
2021/12/08 09:56:53;;;;;;;37.27;21.00;;;1.10;99.90;;;;;;5066336;28;20208;-73
2021/12/08 09:59:21;;;;;;;41.03;22.30;;;1.00;99.90;;;;;;5033868;28;20212;-78
2021/12/08 10:01:48;;;;;;;49.47;23.27;;;1.00;99.90;;;;;;5058933;28;20274;-74
2021/12/08 10:04:15;;;;;;;45.83;23.07;;;1.00;99.90;;;;;;5038033;28;20205;-76
2021/12/08 10:06:49;;;;;;;43.83;25.10;;;1.00;99.90;;;;;;5064987;28;20192;-75
2021/12/08 10:09:14;;;;;;;50.77;23.43;;;1.00;99.90;;;;;;5032927;28;20302;-76
2021/12/08 10:11:40;;;;;;;47.53;26.00;;;1.10;99.90;;;;;;5033907;28;20665;-74
2021/12/08 10:14:06;;;;;;;46.43;24.10;;;1.00;99.90;;;;;;5033200;28;20596;-76
2021/12/08 10:16:33;;;;;;;53.83;23.90;;;1.00;99.90;;;;;;5037323;28;20277;-77
2021/12/08 10:18:59;;;;;;;49.37;25.93;;;1.10;99.90;;;;;;5046414;28;20247;-75
2021/12/08 10:21:41;;;;;;;44.33;23.40;;;1.10;99.90;;;;;;5048399;28;20200;-76
2021/12/08 10:24:26;;;;;;;41.47;23.00;;;1.10;99.90;;;;;;5049215;28;20206;-74
2021/12/08 10:27:00;;;;;;;45.27;25.40;;;1.10;99.90;;;;;;5026870;28;20292;-75
2021/12/08 10:29:27;;;;;;;49.50;25.23;;;1.20;99.90;;;;;;5039036;28;20207;-73
2021/12/08 10:31:54;;;;;;;48.60;23.07;;;1.40;99.90;;;;;;5057464;28;20217;-75
2021/12/08 10:34:25;;;;;;;45.47;26.10;;;1.40;99.90;;;;;;5040201;28;20237;-76
2021/12/08 10:36:57;;;;;;;42.50;23.90;;;1.40;99.90;;;;;;5054399;28;20434;-77
2021/12/08 10:39:35;;;;;;;41.00;22.47;;;1.50;99.90;;;;;;5033107;28;20351;-76
2021/12/08 10:42:17;;;;;;;42.30;24.23;;;1.50;99.90;;;;;;5026295;28;20201;-76
2021/12/08 10:47:32;;;;;;;45.93;24.27;;;1.50;99.90;;;;;;5039235;28;20199;-76
2021/12/08 10:55:58;;;;;;;48.40;23.77;;;1.60;99.90;;;;;;5043805;28;20242;-67
2021/12/08 10:58:27;;;;;;;40.30;23.33;;;1.60;99.90;;;;;;5050209;28;20204;-67
2021/12/08 11:00:55;;;;;;;39.43;24.83;;;1.60;99.90;;;;;;5034111;28;20189;-67
2021/12/08 11:03:22;;;;;;;40.90;24.00;;;1.70;99.90;;;;;;5029360;28;20256;-68
2021/12/08 11:05:51;;;;;;;43.47;23.73;;;1.70;99.90;;;;;;5049870;28;20225;-68
2021/12/08 11:08:30;;;;;;;43.90;24.00;;;1.50;99.90;;;;;;5034388;28;20292;-67
2021/12/08 11:11:20;;;;;;;45.23;22.23;;;1.50;99.90;;;;;;5033749;28;20231;-73
2021/12/08 11:13:49;;;;;;;41.97;22.37;;;1.60;99.90;;;;;;5036214;28;20187;-74
2021/12/08 11:16:26;;;;;;;42.33;23.53;;;1.60;99.90;;;;;;5038346;28;20699;-68
2021/12/08 11:19:09;;;;;;;54.03;25.20;;;1.60;99.90;;;;;;5035129;28;20181;-67
2021/12/08 11:21:39;;;;;;;38.33;21.47;;;1.70;99.90;;;;;;5030068;28;20203;-67
2021/12/08 11:24:24;;;;;;;48.37;23.67;;;1.60;99.90;;;;;;5035144;28;20187;-67
2021/12/08 11:26:52;;;;;;;47.53;23.77;;;1.60;99.90;;;;;;5027920;28;20205;-66
2021/12/08 11:29:27;;;;;;;38.57;23.50;;;1.70;99.90;;;;;;5035140;28;20703;-65
2021/12/08 11:32:04;;;;;;;44.43;23.53;;;1.70;99.90;;;;;;5028114;28;20233;-66
2021/12/08 11:34:36;;;;;;;43.77;22.67;;;1.70;99.90;;;;;;5028436;28;20200;-70
2021/12/08 11:37:04;;;;;;;48.43;25.03;;;1.60;99.90;;;;;;5031294;28;20578;-72
2021/12/08 11:39:41;;;;;;;42.80;23.90;;;1.60;99.90;;;;;;5042908;28;20185;-72
2021/12/08 11:42:12;;;;;;;44.80;23.77;;;1.60;99.90;;;;;;5033388;28;20747;-71
2021/12/08 11:44:40;;;;;;;45.17;22.77;;;1.60;99.90;;;;;;5035696;28;20204;-79
2021/12/08 11:47:16;;;;;;;43.07;21.53;;;1.60;99.90;;;;;;5034400;28;20209;-73
2021/12/08 11:50:07;;;;;;;38.83;22.43;;;1.60;99.90;;;;;;5036159;28;20504;-74
2021/12/08 11:52:32;;;;;;;38.17;22.70;;;1.60;99.90;;;;;;5032648;28;20259;-75
2021/12/08 11:55:19;;;;;;;41.40;22.70;;;1.60;99.90;;;;;;5030893;28;20770;-73
2021/12/08 11:57:56;;;;;;;41.13;22.23;;;1.60;99.90;;;;;;5037500;28;20423;-74
2021/12/08 12:00:32;;;;;;;42.73;21.70;;;1.70;99.90;;;;;;5032061;28;20191;-73
2021/12/08 12:03:07;;;;;;;42.63;22.40;;;1.70;99.90;;;;;;5029696;28;20206;-75
2021/12/08 12:05:34;;;;;;;45.73;22.40;;;1.70;99.90;;;;;;5044116;28;20315;-75
2021/12/08 12:08:03;;;;;;;41.47;23.70;;;1.80;99.90;;;;;;5034451;28;20208;-76
2021/12/08 12:10:34;;;;;;;38.60;22.37;;;1.80;99.90;;;;;;5034139;28;20220;-75
2021/12/08 12:13:01;;;;;;;40.80;23.90;;;1.80;99.90;;;;;;5029873;28;20210;-73
2021/12/08 12:15:27;;;;;;;46.07;24.10;;;1.70;99.90;;;;;;5033235;28;20230;-74
2021/12/08 12:17:53;;;;;;;42.50;23.53;;;1.70;99.90;;;;;;5033589;28;20278;-76
2021/12/08 12:20:40;;;;;;;40.50;23.87;;;1.70;99.90;;;;;;5036030;28;20203;-75
2021/12/08 12:23:46;;;;;;;43.10;22.57;;;1.70;99.90;;;;;;5032966;28;20289;-75
2021/12/08 12:26:55;;;;;;;42.43;23.40;;;1.70;99.90;;;;;;5037875;28;20178;-75
2021/12/08 12:29:26;;;;;;;43.17;23.03;;;1.80;99.90;;;;;;5037593;28;20208;-75
2021/12/08 12:32:10;;;;;;;36.87;21.03;;;2.00;99.90;;;;;;5038366;28;20787;-74
2021/12/08 12:34:38;;;;;;;37.53;22.57;;;2.00;99.90;;;;;;5035564;28;20199;-73
2021/12/08 12:37:13;;;;;;;35.80;22.33;;;2.00;99.90;;;;;;5036730;28;20242;-73
2021/12/08 12:39:56;;;;;;;43.77;23.40;;;2.00;99.90;;;;;;5035703;28;20230;-76
2021/12/08 12:42:23;;;;;;;41.47;21.30;;;2.00;99.90;;;;;;5041570;28;20259;-73
2021/12/08 12:44:57;;;;;;;41.50;23.77;;;2.00;99.90;;;;;;5039387;28;20244;-72
2021/12/08 12:47:26;;;;;;;39.17;21.80;;;1.90;99.90;;;;;;5038815;28;20228;-73
2021/12/08 12:50:03;;;;;;;35.77;20.77;;;1.90;99.90;;;;;;5040617;28;20279;-73
2021/12/08 12:52:36;;;;;;;38.97;21.40;;;1.80;99.90;;;;;;5040560;28;20198;-74
2021/12/08 12:55:09;;;;;;;38.10;21.53;;;1.80;99.90;;;;;;5034431;28;20537;-63
2021/12/08 12:58:09;;;;;;;42.33;22.53;;;1.80;99.90;;;;;;5044450;28;21140;-65
2021/12/08 13:00:41;;;;;;;38.00;22.00;;;1.70;99.90;;;;;;5031313;28;20205;-64
2021/12/08 13:03:08;;;;;;;39.07;21.77;;;1.70;99.90;;;;;;5039864;28;20312;-63
2021/12/08 13:06:08;;;;;;;40.53;21.67;;;1.70;99.90;;;;;;5031375;28;20700;-63
2021/12/08 13:08:43;;;;;;;35.27;21.70;;;1.70;99.90;;;;;;5029268;28;20207;-63
2021/12/08 13:11:34;;;;;;;34.30;20.63;;;1.70;99.90;;;;;;5033906;28;20256;-64
2021/12/08 13:14:01;;;;;;;38.67;21.67;;;1.70;99.90;;;;;;5041285;28;20189;-63
2021/12/08 13:16:33;;;;;;;33.53;21.07;;;1.70;99.90;;;;;;5025949;28;20233;-62
2021/12/08 13:19:00;;;;;;;39.37;20.87;;;1.80;99.90;;;;;;5053494;28;20752;-63
2021/12/08 13:21:47;;;;;;;37.37;20.73;;;1.80;99.90;;;;;;5038550;28;20740;-65
2021/12/08 13:24:36;;;;;;;37.57;22.57;;;1.80;99.90;;;;;;5049234;28;20232;-64
2021/12/08 13:27:27;;;;;;;39.77;21.87;;;1.80;99.90;;;;;;5029062;28;20803;-64
2021/12/08 13:30:11;;;;;;;37.97;21.77;;;1.80;99.90;;;;;;5056659;28;20257;-64
2021/12/08 13:32:44;;;;;;;35.47;20.70;;;1.80;99.90;;;;;;5038459;28;20269;-68
2021/12/08 13:35:10;;;;;;;44.37;22.70;;;1.80;99.90;;;;;;5052093;28;20215;-68
2021/12/08 13:37:36;;;;;;;43.10;22.60;;;1.80;99.90;;;;;;5042448;28;20728;-68
2021/12/08 13:40:07;;;;;;;36.57;21.20;;;1.70;99.90;;;;;;5051785;28;20221;-68
2021/12/08 13:42:50;;;;;;;40.33;21.40;;;1.80;99.90;;;;;;5037787;28;20237;-62
2021/12/08 13:45:16;;;;;;;39.47;21.33;;;1.70;99.90;;;;;;5034225;28;20198;-63